createdAt,value
2018-08-24T00:00:41.590Z,85.20
2018-08-24T00:03:44.858Z,85.20
2018-08-24T00:06:48.194Z,85.50
2018-08-24T00:09:51.973Z,85.80
2018-08-24T00:12:55.359Z,86.20
2018-08-24T00:15:58.846Z,86.50
2018-08-24T00:19:02.095Z,86.80
2018-08-24T00:22:05.302Z,87.20
2018-08-24T00:25:08.490Z,87.50
2018-08-24T00:28:11.746Z,87.80
2018-08-24T00:31:14.947Z,88.20
2018-08-24T00:34:18.283Z,88.50
2018-08-24T00:37:21.548Z,88.80
2018-08-24T00:40:24.882Z,89.20
2018-08-24T00:43:28.219Z,89.30
2018-08-24T00:46:31.574Z,89.60
2018-08-24T00:49:34.942Z,89.90
2018-08-24T00:52:38.249Z,90.00
2018-08-24T00:55:41.439Z,90.20
2018-08-24T00:58:44.765Z,90.50
2018-08-24T01:01:48.026Z,90.10
2018-08-24T01:04:51.338Z,90.20
2018-08-24T01:07:59.930Z,90.20
2018-08-24T01:11:03.371Z,90.30
2018-08-24T01:14:06.690Z,90.30
2018-08-24T01:17:15.467Z,90.40
2018-08-24T01:20:23.165Z,90.40
2018-08-24T01:23:28.577Z,90.40
2018-08-24T01:26:31.804Z,90.40
2018-08-24T01:29:38.193Z,90.20
2018-08-24T01:32:41.478Z,90.10
2018-08-24T01:35:45.108Z,90.00
2018-08-24T01:38:48.405Z,90.10
2018-08-24T01:41:51.634Z,91.40
2018-08-24T01:44:54.953Z,92.20
2018-08-24T01:47:58.226Z,92.70
2018-08-24T01:51:01.518Z,93.40
2018-08-24T01:54:04.818Z,93.90
2018-08-24T01:57:08.037Z,94.30
2018-08-24T02:00:13.644Z,94.60
2018-08-24T02:03:16.929Z,94.80
2018-08-24T02:06:20.251Z,94.70
2018-08-24T02:09:23.835Z,94.70
2018-08-24T02:12:32.650Z,94.80
2018-08-24T02:15:40.398Z,95.00
2018-08-24T02:18:49.174Z,94.90
2018-08-24T02:21:58.086Z,94.80
2018-08-24T02:25:01.303Z,94.80
2018-08-24T02:28:04.962Z,94.70
2018-08-24T02:31:08.314Z,94.70
2018-08-24T02:34:11.563Z,94.50
2018-08-24T02:37:14.926Z,94.80
2018-08-24T02:40:18.258Z,95.00
2018-08-24T02:43:21.526Z,95.20
2018-08-24T02:46:24.750Z,95.50
2018-08-24T02:49:28.052Z,95.40
2018-08-24T02:52:31.507Z,95.20
2018-08-24T02:55:34.851Z,95.20
2018-08-24T02:58:38.118Z,95.40
2018-08-24T03:01:41.452Z,95.30
2018-08-24T03:04:44.764Z,95.40
2018-08-24T03:07:48.099Z,95.40
2018-08-24T03:10:51.434Z,95.40
2018-08-24T03:13:54.647Z,95.40
2018-08-24T03:17:03.574Z,95.50
2018-08-24T03:20:07.067Z,95.70
2018-08-24T03:23:10.351Z,96.40
2018-08-24T03:26:13.899Z,96.40
2018-08-24T03:29:17.282Z,96.20
2018-08-24T03:32:20.558Z,96.40
2018-08-24T03:35:23.852Z,96.60
2018-08-24T03:38:27.132Z,96.80
2018-08-24T03:41:30.416Z,97.00
2018-08-24T03:44:33.770Z,97.10
2018-08-24T03:47:46.821Z,97.10
2018-08-24T03:50:50.073Z,97.10
2018-08-24T03:53:53.402Z,97.00
2018-08-24T03:56:57.750Z,97.20
2018-08-24T04:00:01.022Z,97.20
2018-08-24T04:03:04.570Z,97.20
2018-08-24T04:06:08.027Z,97.10
2018-08-24T04:09:11.807Z,96.80
2018-08-24T04:12:15.254Z,96.50
2018-08-24T04:15:18.665Z,96.30
2018-08-24T04:18:21.854Z,96.30
2018-08-24T04:21:25.249Z,96.20
2018-08-24T04:24:28.550Z,96.00
2018-08-24T04:27:31.826Z,95.90
2018-08-24T04:30:35.107Z,95.80
2018-08-24T04:33:38.330Z,96.10
2018-08-24T04:36:41.586Z,96.10
2018-08-24T04:39:44.835Z,96.10
2018-08-24T04:42:48.372Z,95.90
2018-08-24T04:45:51.642Z,95.90
2018-08-24T04:48:54.929Z,95.90
2018-08-24T04:51:58.202Z,95.90
2018-08-24T04:55:01.406Z,95.80
2018-08-24T04:58:04.725Z,95.70
2018-08-24T05:01:08.073Z,95.60
2018-08-24T05:04:11.326Z,95.70
2018-08-24T05:07:14.626Z,95.50
2018-08-24T05:10:17.915Z,95.30
2018-08-24T05:13:21.225Z,95.10
2018-08-24T05:16:24.499Z,94.80
2018-08-24T05:19:27.813Z,94.50
2018-08-24T05:22:31.077Z,94.20
2018-08-24T05:25:34.388Z,94.40
2018-08-24T05:28:37.699Z,93.80
2018-08-24T05:31:40.982Z,93.90
2018-08-24T05:34:44.262Z,93.90
2018-08-24T05:37:47.487Z,93.80
2018-08-24T05:40:50.799Z,93.80
2018-08-24T05:43:54.087Z,93.90
2018-08-24T05:50:44.586Z,94.40
2018-08-24T05:53:47.964Z,94.80
2018-08-24T05:56:51.112Z,95.20
2018-08-24T05:59:54.462Z,95.40
2018-08-24T06:02:57.813Z,95.50
2018-08-24T06:06:01.517Z,95.60
2018-08-24T06:09:12.863Z,95.70
2018-08-24T06:12:16.156Z,96.00
2018-08-24T06:15:19.411Z,96.10
2018-08-24T06:18:22.703Z,96.10
2018-08-24T06:21:26.074Z,96.50
2018-08-24T06:24:29.396Z,96.70
2018-08-24T06:27:32.627Z,96.80
2018-08-24T06:30:35.910Z,96.90
2018-08-24T06:33:39.098Z,96.90
2018-08-24T06:36:42.383Z,96.70
2018-08-24T06:39:45.702Z,96.50
2018-08-24T06:42:49.007Z,96.40
2018-08-24T06:45:52.315Z,96.20
2018-08-24T06:48:55.648Z,96.10
2018-08-24T06:51:58.958Z,95.90
2018-08-24T06:55:02.364Z,95.70
2018-08-24T06:58:05.780Z,95.70
2018-08-24T07:01:09.098Z,95.70
2018-08-24T07:04:12.456Z,95.30
2018-08-24T07:07:15.804Z,94.80
2018-08-24T07:10:19.002Z,94.60
2018-08-24T07:13:22.227Z,94.30
2018-08-24T07:16:25.538Z,94.30
2018-08-24T07:19:45.927Z,93.90
2018-08-24T07:22:57.822Z,93.80
2018-08-24T07:26:06.301Z,93.10
2018-08-24T07:29:09.671Z,92.60
2018-08-24T07:32:12.970Z,92.50
2018-08-24T07:35:16.398Z,92.10
2018-08-24T07:38:19.638Z,92.10
2018-08-24T07:41:22.916Z,91.90
2018-08-24T07:44:26.337Z,91.90
2018-08-24T07:47:35.103Z,92.00
2018-08-24T07:50:38.447Z,91.90
2018-08-24T07:53:41.817Z,91.90
2018-08-24T07:56:45.091Z,91.80
2018-08-24T07:59:48.619Z,91.80
2018-08-24T08:02:51.912Z,91.50
2018-08-24T08:05:55.246Z,91.20
2018-08-24T08:08:58.766Z,91.10
2018-08-24T08:12:02.034Z,90.00
2018-08-24T08:15:09.423Z,90.40
2018-08-24T08:18:12.740Z,90.30
2018-08-24T08:21:16.022Z,89.50
2018-08-24T08:24:19.327Z,88.70
2018-08-24T08:27:22.630Z,87.90
2018-08-24T08:30:25.948Z,87.80
2018-08-24T08:33:29.254Z,87.70
2018-08-24T08:36:32.486Z,87.20
2018-08-24T08:39:35.726Z,87.20
2018-08-24T08:42:38.954Z,86.90
2018-08-24T08:45:42.165Z,86.40
2018-08-24T08:48:45.396Z,86.40
2018-08-24T08:51:48.732Z,86.40
2018-08-24T08:54:52.476Z,86.30
2018-08-24T08:57:55.913Z,87.50
2018-08-24T09:00:59.485Z,87.60
2018-08-24T09:04:03.132Z,88.10
2018-08-24T09:07:06.410Z,88.30
2018-08-24T09:10:09.684Z,87.80
2018-08-24T09:13:13.024Z,88.10
2018-08-24T09:16:16.308Z,88.40
2018-08-24T09:19:24.925Z,88.50
2018-08-24T09:22:33.754Z,88.70
2018-08-24T09:25:42.628Z,88.50
2018-08-24T09:28:46.231Z,87.90
2018-08-24T09:31:52.912Z,87.60
2018-08-24T09:34:56.442Z,87.40
2018-08-24T09:37:59.675Z,87.30
2018-08-24T09:41:02.889Z,87.50
2018-08-24T09:44:06.219Z,87.60
2018-08-24T09:47:15.094Z,88.10
2018-08-24T09:50:23.619Z,88.00
2018-08-24T09:53:32.334Z,87.50
2018-08-24T09:56:36.663Z,86.90
2018-08-24T09:59:39.922Z,85.90
2018-08-24T10:02:44.148Z,85.10
2018-08-24T10:05:52.704Z,85.90
2018-08-24T10:08:55.996Z,84.80
2018-08-24T10:11:59.308Z,84.40
2018-08-24T10:18:05.714Z,82.90
2018-08-24T10:21:09.490Z,84.30
2018-08-24T10:24:12.710Z,84.50
2018-08-24T10:27:16.083Z,84.10
2018-08-24T10:30:21.466Z,83.70
2018-08-24T10:33:24.863Z,82.90
2018-08-24T10:36:28.175Z,82.20
2018-08-24T10:39:31.439Z,79.70
2018-08-24T10:42:34.696Z,79.70
2018-08-24T10:45:38.003Z,79.80
2018-08-24T10:48:41.355Z,79.50
2018-08-24T10:51:44.656Z,78.70
2018-08-24T10:54:47.919Z,77.20
2018-08-24T10:57:51.118Z,75.40
2018-08-24T11:00:54.398Z,74.70
2018-08-24T11:03:57.797Z,73.20
2018-08-24T11:07:01.073Z,73.40
2018-08-24T11:10:04.402Z,72.40
2018-08-24T11:13:07.927Z,71.90
2018-08-24T11:16:11.294Z,71.20
2018-08-24T11:19:14.575Z,70.60
2018-08-24T11:22:17.878Z,69.60
2018-08-24T11:25:21.237Z,68.30
2018-08-24T11:28:24.542Z,69.40
2018-08-24T11:31:27.822Z,67.90
2018-08-24T11:34:31.022Z,67.40
2018-08-24T11:37:34.326Z,66.60
2018-08-24T11:40:37.618Z,65.60
2018-08-24T11:43:40.986Z,66.70
2018-08-24T11:46:44.325Z,70.00
2018-08-24T11:49:49.255Z,76.60
2018-08-24T11:52:52.518Z,82.90
2018-08-24T11:55:55.794Z,89.10
2018-08-24T11:58:59.100Z,91.40
2018-08-24T12:02:02.349Z,92.60
2018-08-24T12:05:05.702Z,92.60
2018-08-24T12:08:09.205Z,92.80
2018-08-24T12:11:12.346Z,92.40
2018-08-24T12:14:15.737Z,92.60
2018-08-24T12:17:39.238Z,93.20
2018-08-24T12:20:42.572Z,93.00
2018-08-24T12:23:45.931Z,91.40
2018-08-24T12:26:49.219Z,91.00
2018-08-24T12:29:52.569Z,91.20
2018-08-24T12:32:55.790Z,91.30
2018-08-24T12:35:59.106Z,91.10
2018-08-24T12:42:32.026Z,89.50
2018-08-24T12:45:35.305Z,90.20
2018-08-24T12:48:38.621Z,90.40
2018-08-24T12:51:41.810Z,86.70
2018-08-24T12:54:45.158Z,88.20
2018-08-24T12:57:48.430Z,87.00
2018-08-24T13:00:51.718Z,87.10
2018-08-24T13:03:54.966Z,84.70
2018-08-24T13:06:58.214Z,84.60
2018-08-24T13:10:02.010Z,84.00
2018-08-24T13:13:07.141Z,82.20
2018-08-24T13:16:10.526Z,82.80
2018-08-24T13:19:13.722Z,80.90
2018-08-24T13:22:17.003Z,80.10
2018-08-24T13:25:20.300Z,80.00
2018-08-24T13:28:23.611Z,79.50
2018-08-24T13:31:26.850Z,77.50
2018-08-24T13:34:30.217Z,77.10
2018-08-24T13:37:33.438Z,75.60
2018-08-24T13:40:36.738Z,73.70
2018-08-24T13:43:40.090Z,74.50
2018-08-24T13:46:43.381Z,74.70
2018-08-24T13:49:46.634Z,73.60
2018-08-24T13:52:49.714Z,72.30
2018-08-24T13:55:52.808Z,72.50
2018-08-24T13:58:55.872Z,70.90
2018-08-24T14:01:58.956Z,71.00
2018-08-24T14:05:02.119Z,70.60
2018-08-24T14:08:05.198Z,70.60
2018-08-24T14:11:08.260Z,70.00
2018-08-24T14:14:11.369Z,68.70
2018-08-24T14:17:14.438Z,68.00
2018-08-24T14:20:18.304Z,67.60
2018-08-24T14:23:21.393Z,67.20
2018-08-24T14:26:24.525Z,66.80
2018-08-24T14:29:27.546Z,66.60
2018-08-24T14:32:30.629Z,66.40
2018-08-24T14:35:33.702Z,66.60
2018-08-24T14:38:36.795Z,66.50
2018-08-24T14:41:39.874Z,67.30
2018-08-24T14:44:42.934Z,66.40
2018-08-24T14:47:45.997Z,65.40
2018-08-24T14:50:49.065Z,66.30
2018-08-24T14:53:53.322Z,66.80
2018-08-24T14:56:56.397Z,65.00
2018-08-24T14:59:59.457Z,64.70
2018-08-24T15:03:09.461Z,64.00
2018-08-24T15:06:12.550Z,65.20
2018-08-24T15:09:15.614Z,65.00
2018-08-24T15:12:18.693Z,65.90
2018-08-24T15:15:21.761Z,63.80
2018-08-24T15:18:24.850Z,62.90
2018-08-24T15:21:27.937Z,61.40
2018-08-24T15:24:31.013Z,60.40
2018-08-24T15:27:34.085Z,60.20
2018-08-24T15:30:37.182Z,59.40
2018-08-24T15:33:40.232Z,58.80
2018-08-24T15:36:43.308Z,57.60
2018-08-24T15:39:46.398Z,55.60
2018-08-24T15:42:49.449Z,55.80
2018-08-24T15:45:52.637Z,53.60
2018-08-24T15:48:55.678Z,51.20
2018-08-24T15:51:58.745Z,49.30
2018-08-24T15:55:05.543Z,48.20
2018-08-24T15:58:08.606Z,48.20
2018-08-24T16:01:11.728Z,46.50
2018-08-24T16:04:14.793Z,46.10
2018-08-24T16:07:18.064Z,46.80
2018-08-24T16:10:21.141Z,47.00
2018-08-24T16:13:24.202Z,46.70
2018-08-24T16:16:27.367Z,46.90
2018-08-24T16:19:30.408Z,47.00
2018-08-24T16:22:33.482Z,46.10
2018-08-24T16:25:36.526Z,46.60
2018-08-24T16:28:39.582Z,46.40
2018-08-24T16:31:42.654Z,47.60
2018-08-24T16:34:45.734Z,47.90
2018-08-24T16:37:48.782Z,48.10
2018-08-24T16:40:51.858Z,48.10
2018-08-24T16:43:54.933Z,48.40
2018-08-24T16:46:58.005Z,48.90
2018-08-24T16:50:01.065Z,48.40
2018-08-24T16:53:04.145Z,48.30
2018-08-24T16:56:08.402Z,49.40
2018-08-24T16:59:11.491Z,49.60
2018-08-24T17:02:15.021Z,50.70
2018-08-24T17:05:19.188Z,50.40
2018-08-24T17:08:22.270Z,50.40
2018-08-24T17:11:25.341Z,50.40
2018-08-24T17:14:28.453Z,50.30
2018-08-24T17:17:31.546Z,50.30
2018-08-24T17:20:34.619Z,51.80
2018-08-24T17:23:37.675Z,50.40
2018-08-24T17:26:40.773Z,50.20
2018-08-24T17:29:43.850Z,50.10
2018-08-24T17:32:46.957Z,49.70
2018-08-24T17:35:50.064Z,50.00
2018-08-24T17:38:53.161Z,50.60
2018-08-24T17:41:56.334Z,50.90
2018-08-24T17:45:03.274Z,51.30
2018-08-24T17:48:06.517Z,51.30
2018-08-24T17:51:09.686Z,51.80
2018-08-24T17:54:13.067Z,52.30
2018-08-24T17:57:18.772Z,52.60
2018-08-24T18:00:21.994Z,52.70
2018-08-24T18:03:25.186Z,53.30
2018-08-24T18:06:28.418Z,53.50
2018-08-24T18:09:31.832Z,54.10
2018-08-24T18:12:35.237Z,54.60
2018-08-24T18:15:38.672Z,54.50
2018-08-24T18:18:41.923Z,54.40
2018-08-24T18:21:45.934Z,55.60
2018-08-24T18:24:49.281Z,54.80
2018-08-24T18:27:52.579Z,55.00
2018-08-24T18:30:56.007Z,55.80
2018-08-24T18:33:59.306Z,55.60
2018-08-24T18:37:02.782Z,55.50
2018-08-24T18:40:06.543Z,55.40
2018-08-24T18:43:09.849Z,55.80
2018-08-24T18:46:13.186Z,55.80
2018-08-24T18:49:16.528Z,55.90
2018-08-24T18:52:19.893Z,55.80
2018-08-24T18:55:23.312Z,56.10
2018-08-24T18:58:26.866Z,56.40
2018-08-24T19:01:30.215Z,56.80
2018-08-24T19:04:33.624Z,57.30
2018-08-24T19:07:36.862Z,57.20
2018-08-24T19:10:45.724Z,57.10
2018-08-24T19:13:49.144Z,57.20
2018-08-24T19:16:52.374Z,57.50
2018-08-24T19:20:01.010Z,57.50
2018-08-24T19:23:04.348Z,57.70
2018-08-24T19:26:07.639Z,57.80
2018-08-24T19:29:16.334Z,58.10
2018-08-24T19:32:19.611Z,58.10
2018-08-24T19:35:22.877Z,58.40
2018-08-24T19:38:26.131Z,58.70
2018-08-24T19:41:34.934Z,58.70
2018-08-24T19:44:38.208Z,58.80
2018-08-24T19:47:46.935Z,59.50
2018-08-24T19:51:13.317Z,59.30
2018-08-24T19:54:17.414Z,59.00
2018-08-24T19:57:26.172Z,59.70
2018-08-24T20:00:29.466Z,59.80
2018-08-24T20:03:32.743Z,59.70
2018-08-24T20:06:41.571Z,59.90
2018-08-24T20:09:50.143Z,60.20
2018-08-24T20:12:53.398Z,60.00
2018-08-24T20:16:02.191Z,60.40
2018-08-24T20:19:05.481Z,63.10
2018-08-24T20:22:15.239Z,60.80
2018-08-24T20:25:18.478Z,61.20
2018-08-24T20:28:21.854Z,61.50
2018-08-24T20:31:25.125Z,61.50
2018-08-24T20:34:28.454Z,62.10
2018-08-24T20:37:31.746Z,62.40
2018-08-24T20:40:35.107Z,62.50
2018-08-24T20:43:38.451Z,62.50
2018-08-24T20:46:41.743Z,62.80
2018-08-24T20:49:44.981Z,63.20
2018-08-24T20:52:48.265Z,62.90
2018-08-24T20:55:51.590Z,62.80
2018-08-24T20:58:54.855Z,63.20
2018-08-24T21:01:58.170Z,63.40
2018-08-24T21:05:01.474Z,63.80
2018-08-24T21:08:04.751Z,63.90
2018-08-24T21:11:07.989Z,63.90
2018-08-24T21:14:11.284Z,63.80
2018-08-24T21:17:14.553Z,64.10
2018-08-24T21:20:17.932Z,64.50
2018-08-24T21:23:21.154Z,64.70
2018-08-24T21:26:31.192Z,65.20
2018-08-24T21:29:34.503Z,66.10
2018-08-24T21:32:37.827Z,65.50
2018-08-24T21:35:41.266Z,65.70
2018-08-24T21:38:44.672Z,66.00
2018-08-24T21:41:48.037Z,67.40
2018-08-24T21:44:51.333Z,68.40
2018-08-24T21:47:54.636Z,68.10
2018-08-24T21:50:59.074Z,67.50
2018-08-24T21:54:02.568Z,67.00
2018-08-24T21:57:05.867Z,67.10
2018-08-24T22:00:13.637Z,67.10
2018-08-24T22:03:16.966Z,67.20
2018-08-24T22:06:20.290Z,67.20
2018-08-24T22:09:23.667Z,67.50
2018-08-24T22:12:26.966Z,68.50
2018-08-24T22:15:30.466Z,67.90
2018-08-24T22:18:33.742Z,68.10
2018-08-24T22:21:37.046Z,68.50
2018-08-24T22:24:40.375Z,68.20
2018-08-24T22:27:43.677Z,68.30
2018-08-24T22:30:46.910Z,68.80
2018-08-24T22:33:50.227Z,68.70
2018-08-24T22:36:53.560Z,68.80
2018-08-24T22:39:56.904Z,68.90
2018-08-24T22:43:00.120Z,69.10
2018-08-24T22:46:03.968Z,69.70
2018-08-24T22:49:07.237Z,69.70
2018-08-24T22:52:10.715Z,69.70
2018-08-24T22:55:14.098Z,69.80
2018-08-24T22:58:17.437Z,70.10
2018-08-24T23:01:21.581Z,70.10
2018-08-24T23:04:25.054Z,71.20
2018-08-24T23:07:28.346Z,71.60
2018-08-24T23:10:31.751Z,72.00
2018-08-24T23:13:35.002Z,72.40
2018-08-24T23:16:38.245Z,73.30
2018-08-24T23:19:41.663Z,73.30
2018-08-24T23:22:45.386Z,72.60
2018-08-24T23:25:48.662Z,72.70
2018-08-24T23:28:51.934Z,72.60
2018-08-24T23:31:55.153Z,72.90
2018-08-24T23:34:58.394Z,72.90
2018-08-24T23:38:01.736Z,73.70
2018-08-24T23:41:05.343Z,74.60
2018-08-24T23:44:09.131Z,74.10
2018-08-24T23:47:12.446Z,75.10
2018-08-24T23:50:15.768Z,74.40
2018-08-24T23:53:19.147Z,75.00
2018-08-24T23:56:22.540Z,75.10
2018-08-24T23:59:25.812Z,73.10
